createdAt,value
2018-01-22T00:00:09.117Z,20.71
2018-01-22T00:02:15.361Z,20.65
2018-01-22T00:04:21.170Z,20.66
2018-01-22T00:06:30.966Z,20.63
2018-01-22T00:08:38.055Z,20.56
2018-01-22T00:10:47.941Z,20.56
2018-01-22T00:12:55.429Z,20.44
2018-01-22T00:15:02.708Z,20.66
2018-01-22T00:17:09.524Z,20.63
2018-01-22T00:19:18.103Z,20.49
2018-01-22T00:21:28.142Z,20.58
2018-01-22T00:23:36.463Z,20.58
2018-01-22T00:25:43.264Z,20.52
2018-01-22T00:27:50.759Z,20.53
2018-01-22T00:29:57.530Z,20.43
2018-01-22T00:32:03.720Z,20.50
2018-01-22T00:34:11.803Z,20.49
2018-01-22T00:36:19.968Z,20.48
2018-01-22T00:38:29.928Z,20.48
2018-01-22T00:40:37.448Z,20.54
2018-01-22T00:42:44.189Z,20.47
2018-01-22T00:44:51.852Z,20.52
2018-01-22T00:46:59.744Z,20.51
2018-01-22T00:49:08.744Z,20.52
2018-01-22T00:51:17.485Z,20.47
2018-01-22T00:53:26.800Z,20.48
2018-01-22T00:55:33.695Z,20.29
2018-01-22T00:57:40.890Z,20.41
2018-01-22T00:59:49.281Z,20.43
2018-01-22T01:01:55.322Z,20.37
2018-01-22T01:04:01.329Z,20.47
2018-01-22T01:06:07.032Z,20.39
2018-01-22T01:08:12.727Z,20.44
2018-01-22T01:10:19.392Z,20.44
2018-01-22T01:12:28.506Z,20.38
2018-01-22T01:14:34.177Z,20.46
2018-01-22T01:16:40.108Z,20.41
2018-01-22T01:18:45.873Z,20.43
2018-01-22T01:20:51.705Z,20.46
2018-01-22T01:22:57.835Z,20.47
2018-01-22T01:25:04.034Z,20.49
2018-01-22T01:27:09.770Z,20.46
2018-01-22T01:29:15.943Z,20.48
2018-01-22T01:31:21.606Z,20.51
2018-01-22T01:33:29.409Z,20.48
2018-01-22T01:35:35.626Z,20.43
2018-01-22T01:37:41.308Z,20.46
2018-01-22T01:39:46.962Z,20.41
2018-01-22T01:41:52.757Z,20.50
2018-01-22T01:43:58.420Z,20.43
2018-01-22T01:46:04.163Z,20.36
2018-01-22T01:48:10.123Z,20.45
2018-01-22T01:50:15.773Z,20.38
2018-01-22T01:52:22.056Z,20.41
2018-01-22T01:54:32.237Z,20.42
2018-01-22T01:56:38.311Z,20.43
2018-01-22T01:58:44.397Z,20.47
2018-01-22T02:00:51.042Z,20.50
2018-01-22T02:02:56.907Z,20.48
2018-01-22T02:05:03.514Z,20.46
2018-01-22T02:07:11.087Z,20.43
2018-01-22T02:09:16.928Z,20.47
2018-01-22T02:11:26.220Z,20.49
2018-01-22T02:13:31.978Z,20.43
2018-01-22T02:15:37.900Z,20.54
2018-01-22T02:17:44.363Z,20.55
2018-01-22T02:19:52.251Z,20.55
2018-01-22T02:21:58.927Z,20.45
2018-01-22T02:24:05.653Z,20.52
2018-01-22T02:26:12.898Z,20.45
2018-01-22T02:28:19.464Z,20.48
2018-01-22T02:30:29.097Z,20.50
2018-01-22T02:32:34.688Z,20.55
2018-01-22T02:34:40.550Z,20.46
2018-01-22T02:36:46.630Z,20.52
2018-01-22T02:38:52.990Z,20.51
2018-01-22T02:40:59.445Z,20.53
2018-01-22T02:43:05.490Z,20.55
2018-01-22T02:45:11.431Z,20.47
2018-01-22T02:47:17.162Z,20.44
2018-01-22T02:49:23.285Z,20.50
2018-01-22T02:51:31.474Z,20.55
2018-01-22T02:53:37.207Z,20.49
2018-01-22T02:55:45.057Z,20.56
2018-01-22T02:57:53.012Z,20.50
2018-01-22T03:00:00.469Z,20.50
2018-01-22T03:02:06.293Z,20.44
2018-01-22T03:04:12.019Z,20.56
2018-01-22T03:06:17.662Z,20.55
2018-01-22T03:08:23.254Z,20.56
2018-01-22T03:10:31.778Z,20.54
2018-01-22T03:12:37.487Z,20.59
2018-01-22T03:14:43.188Z,20.55
2018-01-22T03:16:49.128Z,20.66
2018-01-22T03:18:55.493Z,20.57
2018-01-22T03:21:01.054Z,20.57
2018-01-22T03:23:07.239Z,20.58
2018-01-22T03:25:12.904Z,20.56
2018-01-22T03:27:18.381Z,20.51
2018-01-22T03:29:26.146Z,20.43
2018-01-22T03:31:31.749Z,20.46
2018-01-22T03:33:43.190Z,20.36
2018-01-22T03:35:48.979Z,20.34
2018-01-22T03:37:54.991Z,20.34
2018-01-22T03:40:00.871Z,20.45
2018-01-22T03:42:06.445Z,20.47
2018-01-22T03:44:12.503Z,20.45
2018-01-22T03:46:18.694Z,20.52
2018-01-22T03:48:27.317Z,20.48
2018-01-22T03:50:33.242Z,20.51
2018-01-22T03:52:38.942Z,20.48
2018-01-22T03:54:45.590Z,20.49
2018-01-22T03:56:52.006Z,20.50
2018-01-22T03:58:59.630Z,20.42
2018-01-22T04:01:05.503Z,20.47
2018-01-22T04:03:11.785Z,20.47
2018-01-22T04:05:17.883Z,20.43
2018-01-22T04:07:23.502Z,20.45
2018-01-22T04:09:30.998Z,20.52
2018-01-22T04:11:36.730Z,20.47
2018-01-22T04:13:42.363Z,20.50
2018-01-22T04:15:48.086Z,20.53
2018-01-22T04:17:54.006Z,20.56
2018-01-22T04:19:59.682Z,20.45
2018-01-22T04:22:05.489Z,20.49
2018-01-22T04:24:12.712Z,20.53
2018-01-22T04:26:18.367Z,20.49
2018-01-22T04:28:28.948Z,20.44
2018-01-22T04:30:34.675Z,20.50
2018-01-22T04:32:41.599Z,20.51
2018-01-22T04:34:47.252Z,20.51
2018-01-22T04:36:56.121Z,20.52
2018-01-22T04:39:02.686Z,20.54
2018-01-22T04:41:08.434Z,20.52
2018-01-22T04:43:14.094Z,20.53
2018-01-22T04:45:21.357Z,20.58
2018-01-22T04:47:29.730Z,20.56
2018-01-22T04:49:35.661Z,20.54
2018-01-22T04:51:41.854Z,20.59
2018-01-22T04:53:47.750Z,20.54
2018-01-22T04:55:56.520Z,20.58
2018-01-22T04:58:09.576Z,20.59
2018-01-22T05:00:50.041Z,20.58
2018-01-22T05:03:04.749Z,20.68
2018-01-22T05:05:14.251Z,20.60
2018-01-22T05:07:31.616Z,20.56
2018-01-22T05:09:40.386Z,20.56
2018-01-22T05:11:51.078Z,20.63
2018-01-22T05:13:58.202Z,20.61
2018-01-22T05:16:10.560Z,20.57
2018-01-22T05:18:19.253Z,20.65
2018-01-22T05:20:30.111Z,20.58
2018-01-22T05:22:35.909Z,20.63
2018-01-22T05:24:42.514Z,20.62
2018-01-22T05:26:49.026Z,20.59
2018-01-22T05:28:55.847Z,20.58
2018-01-22T05:31:02.741Z,20.59
2018-01-22T05:33:09.277Z,20.61
2018-01-22T05:35:16.411Z,20.63
2018-01-22T05:37:26.841Z,20.64
2018-01-22T05:39:34.738Z,20.60
2018-01-22T05:41:41.944Z,20.64
2018-01-22T05:43:49.219Z,20.47
2018-01-22T05:45:58.004Z,20.56
2018-01-22T05:48:05.995Z,20.59
2018-01-22T05:50:12.992Z,20.51
2018-01-22T05:52:19.411Z,20.54
2018-01-22T05:54:28.787Z,20.60
2018-01-22T05:56:35.396Z,20.58
2018-01-22T05:58:41.876Z,20.60
2018-01-22T06:00:48.102Z,20.57
2018-01-22T06:02:54.290Z,20.57
2018-01-22T06:05:00.586Z,20.57
2018-01-22T06:07:07.243Z,20.49
2018-01-22T06:09:15.863Z,20.52
2018-01-22T06:11:28.600Z,20.49
2018-01-22T06:13:36.646Z,20.45
2018-01-22T06:15:44.571Z,20.46
2018-01-22T06:17:50.478Z,20.43
2018-01-22T06:19:56.561Z,20.50
2018-01-22T06:22:02.946Z,20.44
2018-01-22T06:24:08.710Z,20.53
2018-01-22T06:26:16.233Z,20.50
2018-01-22T06:28:22.459Z,20.51
2018-01-22T06:30:28.450Z,20.49
2018-01-22T06:32:34.747Z,20.57
2018-01-22T06:34:41.787Z,20.48
2018-01-22T06:36:47.454Z,20.45
2018-01-22T06:38:53.464Z,20.49
2018-01-22T06:40:59.585Z,20.51
2018-01-22T06:43:07.407Z,20.48
2018-01-22T06:45:14.395Z,20.49
2018-01-22T06:47:20.798Z,20.54
2018-01-22T06:49:28.239Z,20.56
2018-01-22T06:51:34.154Z,20.52
2018-01-22T06:53:40.366Z,20.50
2018-01-22T06:55:47.342Z,20.51
2018-01-22T06:57:53.111Z,20.52
2018-01-22T07:00:00.201Z,20.55
2018-01-22T07:02:05.978Z,20.52
2018-01-22T07:04:11.687Z,20.54
2018-01-22T07:10:19.316Z,20.41
2018-01-22T07:12:26.374Z,20.57
2018-01-22T07:14:34.048Z,20.46
2018-01-22T07:16:42.506Z,20.57
2018-01-22T07:18:49.312Z,20.52
2018-01-22T07:20:55.058Z,20.54
2018-01-22T07:23:00.997Z,20.51
2018-01-22T07:25:07.378Z,20.52
2018-01-22T07:27:13.171Z,20.47
2018-01-22T07:29:18.839Z,20.54
2018-01-22T07:31:26.439Z,20.50
2018-01-22T07:33:33.323Z,20.35
2018-01-22T07:35:38.980Z,20.27
2018-01-22T07:37:44.933Z,20.21
2018-01-22T07:39:50.546Z,20.27
2018-01-22T07:41:57.081Z,20.20
2018-01-22T07:44:03.041Z,20.20
2018-01-22T07:46:09.051Z,20.19
2018-01-22T07:48:14.799Z,20.17
2018-01-22T07:50:21.724Z,20.26
2018-01-22T07:52:30.114Z,20.37
2018-01-22T07:54:35.802Z,20.48
2018-01-22T07:56:41.975Z,20.50
2018-01-22T07:58:47.909Z,20.51
2018-01-22T08:00:53.690Z,20.55
2018-01-22T08:02:59.626Z,20.57
2018-01-22T08:05:06.107Z,20.51
2018-01-22T08:07:12.267Z,20.52
2018-01-22T08:09:18.391Z,20.64
2018-01-22T08:11:26.097Z,20.56
2018-01-22T08:13:32.995Z,20.56
2018-01-22T08:15:38.831Z,20.60
2018-01-22T08:17:44.776Z,20.59
2018-01-22T08:19:51.125Z,20.58
2018-01-22T08:21:58.480Z,20.77
2018-01-22T08:24:05.252Z,20.72
2018-01-22T08:26:12.896Z,20.74
2018-01-22T08:28:38.810Z,20.77
2018-01-22T08:30:51.177Z,20.74
2018-01-22T08:35:31.550Z,20.77
2018-01-22T08:37:37.682Z,20.75
2018-01-22T08:39:46.038Z,20.76
2018-01-22T08:41:59.481Z,20.75
2018-01-22T08:44:05.802Z,20.79
2018-01-22T08:46:11.944Z,20.65
2018-01-22T08:48:17.916Z,20.69
2018-01-22T08:50:26.054Z,20.81
2018-01-22T08:52:33.547Z,20.76
2018-01-22T08:54:40.654Z,20.81
2018-01-22T08:56:47.028Z,20.73
2018-01-22T08:58:53.226Z,20.74
2018-01-22T09:00:59.481Z,20.79
2018-01-22T09:03:06.418Z,20.76
2018-01-22T09:05:13.329Z,20.79
2018-01-22T09:07:19.189Z,20.86
2018-01-22T09:09:27.149Z,20.83
2018-01-22T09:11:34.229Z,20.98
2018-01-22T09:13:42.762Z,20.92
2018-01-22T09:15:56.566Z,21.04
2018-01-22T09:18:03.184Z,20.95
2018-01-22T09:20:13.267Z,21.14
2018-01-22T09:22:18.981Z,21.05
2018-01-22T09:24:27.425Z,20.97
2018-01-22T09:26:33.535Z,20.95
2018-01-22T09:28:41.233Z,20.98
2018-01-22T09:30:47.978Z,20.96
2018-01-22T09:35:37.465Z,20.90
2018-01-22T09:37:43.706Z,20.90
2018-01-22T09:40:01.268Z,20.89
2018-01-22T09:42:09.932Z,20.80
2018-01-22T09:47:53.213Z,20.78
2018-01-22T09:49:59.232Z,20.81
2018-01-22T09:52:07.122Z,20.77
2018-01-22T09:54:13.744Z,20.89
2018-01-22T09:56:19.974Z,20.98
2018-01-22T09:58:25.818Z,20.98
2018-01-22T10:00:35.797Z,20.88
2018-01-22T10:02:42.119Z,20.97
2018-01-22T10:04:48.384Z,21.02
2018-01-22T10:06:56.612Z,20.88
2018-01-22T10:09:02.894Z,20.99
2018-01-22T10:11:09.141Z,20.99
2018-01-22T10:13:14.987Z,21.06
2018-01-22T10:15:21.501Z,21.00
2018-01-22T10:17:30.375Z,21.10
2018-01-22T10:19:36.804Z,21.02
2018-01-22T10:21:42.722Z,20.95
2018-01-22T10:23:48.463Z,20.91
2018-01-22T10:25:54.795Z,20.98
2018-01-22T10:28:21.232Z,21.03
2018-01-22T10:30:28.567Z,21.03
2018-01-22T10:32:35.469Z,20.99
2018-01-22T10:34:42.019Z,20.83
2018-01-22T10:36:50.152Z,20.89
2018-01-22T10:38:56.750Z,20.78
2018-01-22T10:41:04.349Z,20.73
2018-01-22T10:43:11.902Z,20.77
2018-01-22T10:45:18.947Z,20.74
2018-01-22T10:48:01.586Z,20.77
2018-01-22T10:50:37.351Z,20.68
2018-01-22T10:55:14.387Z,20.76
2018-01-22T10:57:21.603Z,20.81
2018-01-22T10:59:38.955Z,20.75
2018-01-22T11:01:52.233Z,20.81
2018-01-22T11:03:59.886Z,20.77
2018-01-22T11:06:15.663Z,20.80
2018-01-22T11:08:27.514Z,20.85
2018-01-22T11:10:37.753Z,20.75
2018-01-22T11:12:45.683Z,20.84
2018-01-22T11:14:54.376Z,20.82
2018-01-22T11:26:58.415Z,20.79
2018-01-22T11:29:34.394Z,21.00
2018-01-22T11:31:41.701Z,20.92
2018-01-22T11:33:51.066Z,20.86
2018-01-22T11:35:58.918Z,20.83
2018-01-22T11:38:23.176Z,20.93
2018-01-22T11:45:46.346Z,20.95
2018-01-22T11:47:52.424Z,20.99
2018-01-22T11:49:58.642Z,21.01
2018-01-22T11:52:09.609Z,20.99
2018-01-22T11:54:16.769Z,20.92
2018-01-22T11:56:22.934Z,20.96
2018-01-22T11:58:31.680Z,20.92
2018-01-22T12:00:37.736Z,20.95
2018-01-22T12:02:44.115Z,20.93
2018-01-22T12:05:11.523Z,20.96
2018-01-22T12:07:18.252Z,21.00
2018-01-22T12:09:29.065Z,21.05
2018-01-22T12:11:36.361Z,21.06
2018-01-22T12:13:42.633Z,20.96
2018-01-22T12:15:48.687Z,21.09
2018-01-22T12:17:54.981Z,21.00
2018-01-22T12:20:01.228Z,21.02
2018-01-22T12:22:07.269Z,20.93
2018-01-22T12:24:14.346Z,21.07
2018-01-22T12:26:20.123Z,21.08
2018-01-22T12:28:27.788Z,21.13
2018-01-22T12:30:34.903Z,20.97
2018-01-22T12:32:42.064Z,21.09
2018-01-22T12:34:49.679Z,21.04
2018-01-22T12:36:56.204Z,21.07
2018-01-22T12:39:04.748Z,21.04
2018-01-22T12:41:12.420Z,21.14
2018-01-22T12:43:18.333Z,21.00
2018-01-22T12:45:26.549Z,21.06
2018-01-22T12:47:32.263Z,21.19
2018-01-22T12:49:38.184Z,21.12
2018-01-22T12:51:44.648Z,21.13
2018-01-22T12:53:50.463Z,21.11
2018-01-22T12:56:02.618Z,21.05
2018-01-22T12:58:12.701Z,21.14
2018-01-22T13:00:19.636Z,21.19
2018-01-22T13:02:29.349Z,21.17
2018-01-22T13:04:39.053Z,21.16
2018-01-22T13:06:47.021Z,21.20
2018-01-22T13:08:54.515Z,21.11
2018-01-22T13:11:00.558Z,20.98
2018-01-22T13:13:06.625Z,20.98
2018-01-22T13:15:15.162Z,21.00
2018-01-22T13:17:26.894Z,20.96
2018-01-22T13:19:40.945Z,21.01
2018-01-22T13:21:50.091Z,20.97
2018-01-22T13:24:01.751Z,20.99
2018-01-22T13:26:09.139Z,21.02
2018-01-22T13:28:15.420Z,21.11
2018-01-22T13:30:22.453Z,21.08
2018-01-22T13:32:33.719Z,21.08
2018-01-22T13:34:40.095Z,21.03
2018-01-22T13:36:46.234Z,20.91
2018-01-22T13:38:52.815Z,21.00
2018-01-22T13:41:02.995Z,21.04
2018-01-22T13:43:09.924Z,21.06
2018-01-22T13:45:16.777Z,21.22
2018-01-22T13:47:24.508Z,21.01
2018-01-22T13:49:30.287Z,21.01
2018-01-22T13:51:37.082Z,21.12
2018-01-22T13:53:51.329Z,21.18
2018-01-22T13:55:57.614Z,21.10
2018-01-22T13:58:05.678Z,21.15
2018-01-22T14:00:13.543Z,21.20
2018-01-22T14:02:20.478Z,21.03
2018-01-22T14:04:29.403Z,21.01
2018-01-22T14:06:36.684Z,21.09
2018-01-22T14:08:43.120Z,21.14
2018-01-22T14:10:49.067Z,21.07
2018-01-22T14:12:55.888Z,21.15
2018-01-22T14:15:02.055Z,21.02
2018-01-22T14:17:07.934Z,21.00
2018-01-22T14:19:14.896Z,21.07
2018-01-22T14:21:21.321Z,21.12
2018-01-22T14:23:29.364Z,20.99
2018-01-22T14:25:36.368Z,21.04
2018-01-22T14:27:43.505Z,21.10
2018-01-22T14:29:50.495Z,21.09
2018-01-22T14:31:58.651Z,21.15
2018-01-22T14:34:05.359Z,21.00
2018-01-22T14:36:12.551Z,21.08
2018-01-22T14:38:19.322Z,21.14
2018-01-22T14:40:24.999Z,21.18
2018-01-22T14:42:31.772Z,21.18
2018-01-22T14:44:40.858Z,21.15
2018-01-22T14:46:47.265Z,21.18
2018-01-22T14:48:53.167Z,21.01
2018-01-22T14:51:00.276Z,21.20
2018-01-22T14:53:07.482Z,21.14
2018-01-22T14:55:14.983Z,21.19
2018-01-22T14:57:22.228Z,21.19
2018-01-22T14:59:29.027Z,21.15
2018-01-22T15:01:35.268Z,21.20
2018-01-22T15:03:41.451Z,21.21
2018-01-22T15:05:48.373Z,21.28
2018-01-22T15:07:54.330Z,21.22
2018-01-22T15:10:00.950Z,21.19
2018-01-22T15:12:07.014Z,21.24
2018-01-22T15:14:14.131Z,21.22
2018-01-22T15:16:20.224Z,21.12
2018-01-22T15:18:25.946Z,21.09
2018-01-22T15:20:31.947Z,20.99
2018-01-22T15:22:39.756Z,21.10
2018-01-22T15:24:45.986Z,21.12
2018-01-22T15:26:53.016Z,21.12
2018-01-22T15:28:59.247Z,20.98
2018-01-22T15:31:07.108Z,21.06
2018-01-22T15:33:13.734Z,20.93
2018-01-22T15:35:20.088Z,20.83
2018-01-22T15:37:28.696Z,20.95
2018-01-22T15:39:36.035Z,20.99
2018-01-22T15:41:42.974Z,21.00
2018-01-22T15:43:50.423Z,20.98
2018-01-22T15:45:59.282Z,21.04
2018-01-22T15:48:11.940Z,20.98
2018-01-22T15:50:31.748Z,21.02
2018-01-22T15:52:40.150Z,20.97
2018-01-22T15:54:47.188Z,21.05
2018-01-22T15:56:52.751Z,21.10
2018-01-22T15:58:58.755Z,21.00
2018-01-22T16:01:05.715Z,21.08
2018-01-22T16:03:13.567Z,21.05
2018-01-22T16:05:20.550Z,21.03
2018-01-22T16:07:30.272Z,20.96
2018-01-22T16:09:39.494Z,21.09
2018-01-22T16:11:48.433Z,21.04
2018-01-22T16:13:56.820Z,21.09
2018-01-22T16:16:03.544Z,21.08
2018-01-22T16:18:11.686Z,20.97
2018-01-22T16:20:19.176Z,20.78
2018-01-22T16:22:28.528Z,20.80
2018-01-22T16:24:34.581Z,20.88
2018-01-22T16:26:41.190Z,20.89
2018-01-22T16:28:47.280Z,20.96
2018-01-22T16:30:53.174Z,21.01
2018-01-22T16:33:00.299Z,20.97
2018-01-22T16:37:32.412Z,21.02
2018-01-22T16:39:38.389Z,21.04
2018-01-22T16:41:44.162Z,21.06
2018-01-22T16:43:50.066Z,21.07
2018-01-22T16:45:56.750Z,21.12
2018-01-22T16:48:03.666Z,21.08
2018-01-22T16:50:12.552Z,21.09
2018-01-22T16:52:22.212Z,21.15
2018-01-22T16:54:53.429Z,21.12
2018-01-22T16:57:00.367Z,21.02
2018-01-22T16:59:11.522Z,20.96
2018-01-22T17:01:19.459Z,21.07
2018-01-22T17:06:05.692Z,20.95
2018-01-22T17:08:14.755Z,20.93
2018-01-22T17:10:27.600Z,20.97
2018-01-22T17:12:35.849Z,21.03
2018-01-22T17:14:42.904Z,21.13
2018-01-22T17:16:54.980Z,21.02
2018-01-22T17:19:02.564Z,21.04
2018-01-22T17:21:08.812Z,21.08
2018-01-22T17:23:15.876Z,21.13
2018-01-22T17:25:24.195Z,21.21
2018-01-22T17:27:32.648Z,21.19
2018-01-22T17:29:39.259Z,21.18
2018-01-22T17:31:45.941Z,21.12
2018-01-22T17:33:52.361Z,21.21
2018-01-22T17:35:58.491Z,21.20
2018-01-22T17:38:05.419Z,21.11
2018-01-22T17:40:14.797Z,21.16
2018-01-22T17:44:35.980Z,20.89
2018-01-22T17:46:44.001Z,20.81
2018-01-22T17:48:51.737Z,20.82
2018-01-22T17:51:06.473Z,20.80
2018-01-22T17:53:12.802Z,20.80
2018-01-22T17:55:19.311Z,20.69
2018-01-22T17:57:25.564Z,20.70
2018-01-22T17:59:36.480Z,20.68
2018-01-22T18:01:43.672Z,20.79
2018-01-22T18:03:51.323Z,20.70
2018-01-22T18:06:00.645Z,20.80
2018-01-22T18:08:06.813Z,20.71
2018-01-22T18:10:16.924Z,20.81
2018-01-22T18:12:22.983Z,20.74
2018-01-22T18:14:30.909Z,20.75
2018-01-22T18:16:37.193Z,20.72
2018-01-22T18:18:47.044Z,20.70
2018-01-22T18:20:56.718Z,20.76
2018-01-22T18:23:05.406Z,20.75
2018-01-22T18:25:11.499Z,20.68
2018-01-22T18:27:17.818Z,20.76
2018-01-22T18:29:32.701Z,20.73
2018-01-22T18:31:44.416Z,20.74
2018-01-22T18:34:00.012Z,20.73
2018-01-22T18:36:07.143Z,20.82
2018-01-22T18:38:16.292Z,20.76
2018-01-22T18:40:23.199Z,20.66
2018-01-22T18:42:32.694Z,20.73
2018-01-22T18:44:43.460Z,20.68
2018-01-22T18:46:52.347Z,20.75
2018-01-22T18:49:01.941Z,20.90
2018-01-22T18:51:08.885Z,21.08
2018-01-22T18:53:15.301Z,21.20
2018-01-22T18:55:26.929Z,21.24
2018-01-22T18:57:32.885Z,21.04
2018-01-22T18:59:39.402Z,21.14
2018-01-22T19:01:46.635Z,21.18
2018-01-22T19:03:53.794Z,21.28
2018-01-22T19:06:01.179Z,21.39
2018-01-22T19:08:08.680Z,21.39
2018-01-22T19:10:15.351Z,21.37
2018-01-22T19:12:22.412Z,21.36
2018-01-22T19:17:00.379Z,21.41
2018-01-22T19:19:15.852Z,21.46
2018-01-22T19:21:22.201Z,21.51
2018-01-22T19:23:30.602Z,21.45
2018-01-22T19:25:36.546Z,21.48
2018-01-22T19:27:42.717Z,21.50
2018-01-22T19:29:49.388Z,21.48
2018-01-22T19:31:55.682Z,21.45
2018-01-22T19:34:01.904Z,21.49
2018-01-22T19:36:08.701Z,21.34
2018-01-22T19:38:15.619Z,21.44
2018-01-22T19:40:22.253Z,21.44
2018-01-22T19:42:30.274Z,21.59
2018-01-22T19:44:40.329Z,21.53
2018-01-22T19:46:47.544Z,21.38
2018-01-22T19:48:53.759Z,21.53
2018-01-22T19:50:59.883Z,21.62
2018-01-22T19:53:06.686Z,21.42
2018-01-22T19:55:22.791Z,21.40
2018-01-22T19:57:33.115Z,21.42
2018-01-22T19:59:41.673Z,21.38
2018-01-22T20:01:49.523Z,21.33
2018-01-22T20:03:57.827Z,21.40
2018-01-22T20:06:08.323Z,21.40
2018-01-22T20:08:15.281Z,21.48
2018-01-22T20:10:22.430Z,21.61
2018-01-22T20:12:34.899Z,21.62
2018-01-22T20:14:52.646Z,21.68
2018-01-22T20:17:08.395Z,21.63
2018-01-22T20:24:13.666Z,21.40
2018-01-22T20:26:28.919Z,21.37
2018-01-22T20:28:45.906Z,21.39
2018-01-22T20:31:00.964Z,21.33
2018-01-22T20:33:12.730Z,21.39
2018-01-22T20:37:56.774Z,21.24
2018-01-22T20:42:35.735Z,21.30
2018-01-22T20:44:43.353Z,21.22
2018-01-22T20:46:52.722Z,21.20
2018-01-22T20:49:03.367Z,21.30
2018-01-22T20:51:10.116Z,21.22
2018-01-22T20:53:18.129Z,21.27
2018-01-22T20:55:28.765Z,21.24
2018-01-22T20:57:36.775Z,21.26
2018-01-22T20:59:43.307Z,21.30
2018-01-22T21:01:53.513Z,21.30
2018-01-22T21:04:01.324Z,21.36
2018-01-22T21:06:07.450Z,21.30
2018-01-22T21:08:13.897Z,21.25
2018-01-22T21:10:20.844Z,21.38
2018-01-22T21:12:31.512Z,21.24
2018-01-22T21:14:37.413Z,21.32
2018-01-22T21:16:43.437Z,21.29
2018-01-22T21:18:51.002Z,21.30
2018-01-22T21:21:02.425Z,21.28
2018-01-22T21:23:10.198Z,21.27
2018-01-22T21:25:18.919Z,21.32
2018-01-22T21:27:30.848Z,21.34
2018-01-22T21:29:42.791Z,21.31
2018-01-22T21:31:51.258Z,21.29
2018-01-22T21:34:04.880Z,21.27
2018-01-22T21:36:14.624Z,21.28
2018-01-22T21:38:25.350Z,21.20
2018-01-22T21:40:34.973Z,21.26
2018-01-22T21:42:42.479Z,21.23
2018-01-22T21:44:50.219Z,21.30
2018-01-22T21:46:58.067Z,21.24
2018-01-22T21:49:04.148Z,21.28
2018-01-22T21:51:10.627Z,21.31
2018-01-22T21:53:16.491Z,21.27
2018-01-22T21:55:22.693Z,21.16
2018-01-22T21:57:33.077Z,21.28
2018-01-22T21:59:40.835Z,21.25
2018-01-22T22:01:47.104Z,21.16
2018-01-22T22:03:53.619Z,21.24
2018-01-22T22:05:59.658Z,21.24
2018-01-22T22:08:07.001Z,21.28
2018-01-22T22:10:13.895Z,21.31
2018-01-22T22:12:21.717Z,21.23
2018-01-22T22:14:32.281Z,21.32
2018-01-22T22:16:42.997Z,21.35
2018-01-22T22:18:55.498Z,21.35
2018-01-22T22:21:03.580Z,21.30
2018-01-22T22:23:10.964Z,21.20
2018-01-22T22:25:17.219Z,21.22
2018-01-22T22:27:31.714Z,21.24
2018-01-22T22:29:40.651Z,21.32
2018-01-22T22:31:46.456Z,21.23
2018-01-22T22:33:52.804Z,21.24
2018-01-22T22:36:00.660Z,21.19
2018-01-22T22:38:09.537Z,21.24
2018-01-22T22:40:17.290Z,21.19
2018-01-22T22:42:27.479Z,21.20
2018-01-22T22:44:35.062Z,21.15
2018-01-22T22:52:26.946Z,21.16
2018-01-22T22:54:34.287Z,21.22
2018-01-22T22:56:41.623Z,21.25
2018-01-22T22:58:48.687Z,21.28
2018-01-22T23:00:55.669Z,21.37
2018-01-22T23:03:03.644Z,21.32
2018-01-22T23:07:46.368Z,21.29
2018-01-22T23:09:52.375Z,21.27
2018-01-22T23:12:00.153Z,21.27
2018-01-22T23:14:06.829Z,21.34
2018-01-22T23:16:14.910Z,21.27
2018-01-22T23:18:21.384Z,21.32
2018-01-22T23:20:29.559Z,21.26
2018-01-22T23:22:36.621Z,21.26
2018-01-22T23:24:46.232Z,21.14
2018-01-22T23:26:57.578Z,21.18
2018-01-22T23:29:04.473Z,21.19
2018-01-22T23:31:10.764Z,21.22
2018-01-22T23:33:17.189Z,21.27
2018-01-22T23:35:23.339Z,21.25
2018-01-22T23:37:32.426Z,21.32
2018-01-22T23:39:42.479Z,21.30
2018-01-22T23:41:51.339Z,21.28
2018-01-22T23:43:58.333Z,21.23
2018-01-22T23:46:12.945Z,21.12
2018-01-22T23:48:20.081Z,21.32
2018-01-22T23:50:28.852Z,21.26
2018-01-22T23:52:36.434Z,21.27
2018-01-22T23:54:43.108Z,21.26
2018-01-22T23:56:56.266Z,21.24
2018-01-22T23:59:02.396Z,21.17
